New Hradec, North Dakota
Current Conditions -  °F | °C
As of 3:56 PM on Saturday 20 Dec 2014 (Local Time) from KDIK Reporting Station
Clear Clear  
Wind Chill: 25°   Ceiling: Unl
Heat Index: 33°   Visibility: 10mi
Dew Point: 24°   Wind: 9mph
Humidity: 70%   Direction: 250°WSW
Pressure: 29.79"   Gusts: NA
Location:  46.9271°N, 102.754°W
Report Text: KDIK 202256Z AUTO 25008KT 10SM CLR 01/M04 A2979 RMK AO2 SLP112 T00061044
Loading
Personal Weather Stations






























Interactive Weather Map New forecast layout! Learn more

10-Day Weather Forecast

Advertisements
Track Severe Weather on mobile